Time;durP1;ratioP1;P1;durP2;ratioP2;P2;SDS_P1;SDS_P2;PMS_P1;PMS_P2;Temp;Humidity;BMP_temperature;BMP_pressure;BME280_temperature;BME280_humidity;BME280_pressure;Samples;Min_cycle;Max_cycle;Signal;HPM_P1;HPM_P2
2022/01/01 00:00:09;;;;;;;22.75;10.68;;;9.90;99.90;;;;;;4980590;28;20030;-71
2022/01/01 00:02:35;;;;;;;21.80;10.10;;;9.80;99.90;;;;;;4989169;28;20080;-70
2022/01/01 00:05:02;;;;;;;24.05;10.15;;;9.80;99.90;;;;;;4990731;28;20052;-70
2022/01/01 00:07:28;;;;;;;21.75;10.57;;;9.80;99.90;;;;;;4990987;28;20027;-70
2022/01/01 00:09:54;;;;;;;22.77;10.52;;;9.70;99.90;;;;;;4989652;28;20729;-71
2022/01/01 00:12:19;;;;;;;24.02;10.35;;;9.80;99.90;;;;;;4990166;28;20038;-71
2022/01/01 00:14:45;;;;;;;21.08;10.05;;;9.70;99.90;;;;;;4990040;28;20039;-70
2022/01/01 00:17:11;;;;;;;19.50;9.50;;;9.70;99.90;;;;;;4991116;28;20134;-70
2022/01/01 00:19:36;;;;;;;25.73;10.50;;;9.70;99.90;;;;;;4990415;28;20038;-70
2022/01/01 00:22:03;;;;;;;22.95;10.00;;;9.70;99.90;;;;;;4990204;28;20085;-70
2022/01/01 00:24:29;;;;;;;23.10;10.18;;;9.70;99.90;;;;;;4989859;28;20034;-71
2022/01/01 00:26:55;;;;;;;23.15;9.85;;;9.60;99.90;;;;;;4989154;28;20045;-71
2022/01/01 00:29:21;;;;;;;23.50;9.65;;;9.60;99.90;;;;;;4990956;28;20034;-71
2022/01/01 00:31:47;;;;;;;26.45;10.23;;;9.60;99.90;;;;;;4990045;28;20050;-71
2022/01/01 00:34:13;;;;;;;19.92;9.63;;;9.60;99.90;;;;;;4990642;28;20042;-71
2022/01/01 00:36:39;;;;;;;22.85;9.70;;;9.70;99.90;;;;;;4989936;28;20056;-70
2022/01/01 00:39:05;;;;;;;21.48;8.82;;;9.70;99.90;;;;;;4990447;28;20034;-70
2022/01/01 00:41:31;;;;;;;22.27;10.15;;;9.60;99.90;;;;;;4990237;28;20073;-71
2022/01/01 00:43:57;;;;;;;24.58;11.02;;;9.60;99.90;;;;;;4990078;28;20664;-70
2022/01/01 00:46:23;;;;;;;24.40;10.35;;;9.60;99.90;;;;;;4989822;28;20117;-70
2022/01/01 00:48:53;;;;;;;23.63;10.75;;;9.60;99.90;;;;;;4989149;28;20038;-71
2022/01/01 00:51:21;;;;;;;27.20;11.88;;;9.60;99.90;;;;;;4990520;28;20077;-71
2022/01/01 00:53:48;;;;;;;25.10;11.43;;;9.60;99.90;;;;;;4989167;28;20117;-71
2022/01/01 00:56:13;;;;;;;26.13;12.10;;;9.60;99.90;;;;;;4990271;28;20042;-70
2022/01/01 00:58:39;;;;;;;28.60;11.70;;;9.50;99.90;;;;;;4988851;28;20037;-71
2022/01/01 01:01:05;;;;;;;28.67;12.45;;;9.50;99.90;;;;;;4988947;28;20129;-71
2022/01/01 01:03:31;;;;;;;24.75;11.75;;;9.50;99.90;;;;;;4990188;28;20045;-71
2022/01/01 01:05:58;;;;;;;26.63;11.52;;;9.50;99.90;;;;;;4988931;28;20057;-71
2022/01/01 01:08:24;;;;;;;24.05;11.90;;;9.50;99.90;;;;;;4990317;28;20041;-71
2022/01/01 01:10:50;;;;;;;26.25;10.55;;;9.50;99.90;;;;;;4988803;28;20042;-71
2022/01/01 01:13:16;;;;;;;21.90;9.85;;;9.50;99.90;;;;;;4989731;28;20035;-71
2022/01/01 01:15:43;;;;;;;30.65;11.07;;;9.50;99.90;;;;;;4989468;28;20073;-69
2022/01/01 01:18:09;;;;;;;27.88;10.23;;;9.50;99.90;;;;;;4989880;28;20031;-72
2022/01/01 01:20:35;;;;;;;19.85;10.25;;;9.50;99.90;;;;;;4989923;28;20075;-70
2022/01/01 01:23:01;;;;;;;24.25;11.30;;;9.50;99.90;;;;;;4988934;28;20049;-71
2022/01/01 01:25:29;;;;;;;23.50;10.38;;;9.50;99.90;;;;;;4989182;28;20022;-70
2022/01/01 01:27:56;;;;;;;24.75;11.18;;;9.50;99.90;;;;;;4988930;28;20026;-70
2022/01/01 01:30:23;;;;;;;24.42;11.00;;;9.50;99.90;;;;;;4988732;28;20461;-71
2022/01/01 01:32:49;;;;;;;22.92;10.93;;;9.50;99.90;;;;;;4988573;28;20495;-70
2022/01/01 01:35:15;;;;;;;31.50;12.02;;;9.50;99.90;;;;;;4989779;28;20022;-71
2022/01/01 01:37:41;;;;;;;25.00;10.68;;;9.40;99.90;;;;;;4988636;28;20513;-73
2022/01/01 01:40:07;;;;;;;25.35;11.57;;;9.40;99.90;;;;;;4987903;28;20424;-71
2022/01/01 01:42:34;;;;;;;26.20;11.23;;;9.40;99.90;;;;;;4989313;28;20405;-70
2022/01/01 01:45:02;;;;;;;28.45;12.55;;;9.40;99.90;;;;;;4988629;28;20510;-71
2022/01/01 01:47:37;;;;;;;31.35;13.00;;;9.40;99.90;;;;;;4989492;28;20057;-69
2022/01/01 01:50:10;;;;;;;30.67;14.52;;;9.30;99.90;;;;;;4982823;28;20034;-71
2022/01/01 01:52:37;;;;;;;32.13;14.35;;;9.30;99.90;;;;;;4970393;28;20082;-69
2022/01/01 01:55:10;;;;;;;32.90;13.93;;;9.30;99.90;;;;;;4981466;28;20421;-71
2022/01/01 01:57:41;;;;;;;25.83;11.98;;;9.30;99.90;;;;;;4991550;28;20113;-71
2022/01/01 02:02:49;;;;;;;29.25;12.68;;;9.20;99.90;;;;;;4976026;28;20039;-70
2022/01/01 02:05:15;;;;;;;29.92;12.63;;;9.20;99.90;;;;;;4994559;28;20030;-71
2022/01/01 02:07:42;;;;;;;29.05;12.77;;;9.20;99.90;;;;;;4995081;28;20114;-70
2022/01/01 02:10:09;;;;;;;27.13;12.23;;;9.10;99.90;;;;;;4995825;28;20038;-70
2022/01/01 02:12:34;;;;;;;28.83;12.23;;;9.10;99.90;;;;;;4995786;28;20034;-70
2022/01/01 02:17:28;;;;;;;26.27;11.35;;;9.00;99.90;;;;;;4994931;28;20463;-70
2022/01/01 02:20:15;;;;;;;34.05;13.10;;;9.00;99.90;;;;;;4995380;28;20034;-70
2022/01/01 02:22:47;;;;;;;29.30;13.13;;;9.00;99.90;;;;;;4994710;28;20041;-71
2022/01/01 02:25:19;;;;;;;36.20;12.13;;;9.00;99.90;;;;;;4988923;28;20030;-70
2022/01/01 02:27:45;;;;;;;37.28;13.85;;;9.00;99.90;;;;;;4994263;28;20073;-70
2022/01/01 02:30:13;;;;;;;27.25;13.43;;;9.00;99.90;;;;;;4995317;28;20044;-70
2022/01/01 02:32:39;;;;;;;35.03;14.00;;;9.00;99.90;;;;;;4995269;28;20121;-72
2022/01/01 02:35:07;;;;;;;34.58;14.43;;;9.00;99.90;;;;;;4994718;28;20022;-70
2022/01/01 02:37:35;;;;;;;33.08;13.77;;;9.00;99.90;;;;;;4994884;28;20153;-71
2022/01/01 02:40:01;;;;;;;32.13;13.98;;;9.00;99.90;;;;;;4993062;28;20046;-70
2022/01/01 02:42:27;;;;;;;35.38;14.55;;;9.00;99.90;;;;;;4995343;28;20030;-69
2022/01/01 02:44:54;;;;;;;35.30;14.52;;;9.10;99.90;;;;;;4994509;28;20034;-70
2022/01/01 02:47:20;;;;;;;34.38;14.02;;;9.00;99.90;;;;;;4995636;28;20553;-70
2022/01/01 02:49:46;;;;;;;35.38;13.88;;;9.00;99.90;;;;;;4994430;28;20026;-71
2022/01/01 02:52:12;;;;;;;39.78;13.80;;;9.00;99.90;;;;;;4995495;28;20034;-71
2022/01/01 02:54:38;;;;;;;34.85;13.98;;;9.00;99.90;;;;;;4995241;28;20030;-71
2022/01/01 02:57:04;;;;;;;34.90;13.90;;;9.10;99.90;;;;;;4994536;28;20133;-71
2022/01/01 02:59:29;;;;;;;31.88;12.80;;;9.00;99.90;;;;;;4995613;28;20034;-70
2022/01/01 03:01:55;;;;;;;31.65;12.77;;;9.00;99.90;;;;;;4994429;28;20618;-70
2022/01/01 03:04:20;;;;;;;32.58;13.52;;;9.00;99.90;;;;;;4995161;28;20030;-70
2022/01/01 03:06:53;;;;;;;36.45;12.52;;;9.00;99.90;;;;;;4994783;28;20026;-71
2022/01/01 03:09:19;;;;;;;28.73;12.35;;;9.00;99.90;;;;;;4993822;28;20034;-70
2022/01/01 03:11:45;;;;;;;35.15;13.48;;;9.00;99.90;;;;;;4991625;28;20467;-71
2022/01/01 03:14:12;;;;;;;30.83;13.10;;;9.10;99.90;;;;;;4992060;28;20058;-70
2022/01/01 03:16:38;;;;;;;30.55;12.20;;;9.00;99.90;;;;;;4991909;28;20030;-70
2022/01/01 03:19:03;;;;;;;28.33;12.73;;;9.10;99.90;;;;;;4989994;28;20042;-70
2022/01/01 03:21:29;;;;;;;29.17;12.52;;;9.10;99.90;;;;;;4990739;28;20046;-70
2022/01/01 03:23:55;;;;;;;28.75;11.95;;;9.10;99.90;;;;;;4991100;28;20034;-70
2022/01/01 03:26:20;;;;;;;36.50;13.15;;;9.10;99.90;;;;;;4991550;28;20054;-70
2022/01/01 03:28:46;;;;;;;72.60;13.98;;;9.10;99.90;;;;;;4991077;28;20390;-70
2022/01/01 03:31:12;;;;;;;37.67;12.75;;;9.10;99.90;;;;;;4991332;28;20157;-70
2022/01/01 03:33:37;;;;;;;30.83;12.95;;;9.00;99.90;;;;;;4991990;28;20038;-70
2022/01/01 03:36:04;;;;;;;26.30;11.45;;;9.10;99.90;;;;;;4990723;28;20031;-70
2022/01/01 03:38:30;;;;;;;30.92;11.80;;;9.10;99.90;;;;;;4991899;28;20031;-70
2022/01/01 03:40:56;;;;;;;35.65;12.57;;;9.10;99.90;;;;;;4990768;28;20128;-71
2022/01/01 03:43:21;;;;;;;69.50;14.25;;;9.10;99.90;;;;;;4991638;28;20526;-70
2022/01/01 03:45:47;;;;;;;61.55;14.05;;;9.10;99.90;;;;;;4991154;28;20034;-70
2022/01/01 03:48:13;;;;;;;39.67;15.32;;;9.10;99.90;;;;;;4990928;28;20609;-70
2022/01/01 03:50:38;;;;;;;42.00;16.27;;;9.00;99.90;;;;;;4991734;28;20455;-71
2022/01/01 03:53:04;;;;;;;43.45;15.57;;;9.00;99.90;;;;;;4990626;28;20404;-71
2022/01/01 03:55:30;;;;;;;42.20;16.45;;;9.00;99.90;;;;;;4989823;28;20034;-70
2022/01/01 03:57:55;;;;;;;49.03;18.05;;;9.00;99.90;;;;;;4990923;28;20034;-70
2022/01/01 04:00:21;;;;;;;41.90;16.88;;;9.00;99.90;;;;;;4991136;28;20080;-71
2022/01/01 04:02:47;;;;;;;36.25;15.38;;;8.90;99.90;;;;;;4991408;28;20393;-70
2022/01/01 04:05:13;;;;;;;43.03;15.63;;;8.90;99.90;;;;;;4990516;28;20026;-70
2022/01/01 04:07:38;;;;;;;41.33;15.73;;;8.90;99.90;;;;;;4991023;28;20065;-70
2022/01/01 04:10:04;;;;;;;39.03;16.05;;;9.00;99.90;;;;;;4990508;28;20041;-70
2022/01/01 04:12:30;;;;;;;50.95;16.13;;;9.00;99.90;;;;;;4991040;28;20034;-70
2022/01/01 04:14:59;;;;;;;39.85;15.35;;;9.00;99.90;;;;;;4988657;28;20088;-70
2022/01/01 04:17:25;;;;;;;35.25;15.43;;;9.00;99.90;;;;;;4990563;28;20034;-70
2022/01/01 04:19:50;;;;;;;40.58;14.95;;;9.00;99.90;;;;;;4989951;28;20030;-70
2022/01/01 04:22:16;;;;;;;36.03;15.20;;;9.00;99.90;;;;;;4989753;28;20037;-70
2022/01/01 04:24:42;;;;;;;38.05;14.75;;;9.00;99.90;;;;;;4990043;28;20453;-70
2022/01/01 04:27:08;;;;;;;31.75;13.60;;;9.00;99.90;;;;;;4989991;28;20034;-71
2022/01/01 04:29:35;;;;;;;37.60;14.60;;;9.00;99.90;;;;;;4990470;28;20039;-70
2022/01/01 04:32:01;;;;;;;31.08;14.05;;;9.00;99.90;;;;;;4988247;28;20673;-71
2022/01/01 04:34:27;;;;;;;32.58;13.88;;;9.10;99.90;;;;;;4990693;28;20049;-70
2022/01/01 04:37:11;;;;;;;37.10;14.20;;;9.00;99.90;;;;;;4990031;28;20082;-71
2022/01/01 04:39:37;;;;;;;49.72;15.10;;;9.00;99.90;;;;;;4989937;28;20495;-70
2022/01/01 04:42:03;;;;;;;41.40;16.10;;;9.10;99.90;;;;;;4989137;28;20100;-70
2022/01/01 04:44:29;;;;;;;41.72;16.05;;;9.00;99.90;;;;;;4990421;28;20105;-70
2022/01/01 04:46:54;;;;;;;39.30;16.85;;;9.00;99.90;;;;;;4989363;28;20038;-70
2022/01/01 04:49:21;;;;;;;48.58;16.92;;;9.00;99.90;;;;;;4990184;28;20082;-71
2022/01/01 04:51:47;;;;;;;50.00;17.40;;;9.00;99.90;;;;;;4990436;28;20022;-70
2022/01/01 04:54:15;;;;;;;43.88;16.40;;;9.00;99.90;;;;;;4989381;28;20217;-70
2022/01/01 04:56:44;;;;;;;45.05;17.15;;;9.10;99.90;;;;;;4990169;28;20046;-70
2022/01/01 04:59:11;;;;;;;45.00;15.75;;;9.10;99.90;;;;;;4989387;28;20038;-70
2022/01/01 05:01:37;;;;;;;41.95;15.27;;;9.00;99.90;;;;;;4989881;28;20034;-70
2022/01/01 05:04:03;;;;;;;35.65;14.40;;;9.00;99.90;;;;;;4988918;28;20039;-70
2022/01/01 05:06:29;;;;;;;39.70;14.27;;;9.10;99.90;;;;;;4990060;28;20034;-71
2022/01/01 05:08:54;;;;;;;34.83;14.77;;;9.00;99.90;;;;;;4989562;28;20034;-70
2022/01/01 05:11:20;;;;;;;35.00;14.45;;;9.00;99.90;;;;;;4989630;28;20037;-71
2022/01/01 05:13:46;;;;;;;36.97;14.52;;;9.10;99.90;;;;;;4989362;28;20388;-70
2022/01/01 05:16:15;;;;;;;34.72;14.63;;;9.10;99.90;;;;;;4989002;28;20037;-70
2022/01/01 05:18:41;;;;;;;35.90;14.50;;;9.10;99.90;;;;;;4989498;28;20506;-71
2022/01/01 05:21:07;;;;;;;38.20;14.50;;;9.00;99.90;;;;;;4987623;28;20031;-71
2022/01/01 05:23:33;;;;;;;41.95;15.25;;;9.10;99.90;;;;;;4990146;28;20030;-70
2022/01/01 05:25:58;;;;;;;43.60;15.18;;;9.10;99.90;;;;;;4988847;28;20061;-70
2022/01/01 05:28:24;;;;;;;40.17;14.45;;;9.10;99.90;;;;;;4989892;28;20297;-70
2022/01/01 05:30:50;;;;;;;37.22;14.98;;;9.10;99.90;;;;;;4989737;28;20041;-71
2022/01/01 05:33:16;;;;;;;37.78;14.75;;;9.10;99.90;;;;;;4987596;28;20031;-71
2022/01/01 05:35:42;;;;;;;39.10;15.98;;;9.20;99.90;;;;;;4989548;28;20088;-71
2022/01/01 05:38:07;;;;;;;34.55;14.23;;;9.20;99.90;;;;;;4988772;28;20057;-70
2022/01/01 05:40:33;;;;;;;39.05;15.13;;;9.20;99.90;;;;;;4989266;28;20553;-71
2022/01/01 05:42:59;;;;;;;35.40;14.40;;;9.20;99.90;;;;;;4988523;28;20037;-71
2022/01/01 05:45:25;;;;;;;36.92;14.25;;;9.20;99.90;;;;;;4989687;28;20030;-70
2022/01/01 05:47:50;;;;;;;36.97;13.77;;;9.20;99.90;;;;;;4989303;28;20403;-71
2022/01/01 05:50:17;;;;;;;36.70;14.20;;;9.20;99.90;;;;;;4988293;28;20034;-70
2022/01/01 05:52:43;;;;;;;33.05;13.75;;;9.20;99.90;;;;;;4989188;28;20479;-69
2022/01/01 05:55:09;;;;;;;34.72;13.85;;;9.20;99.90;;;;;;4988454;28;20027;-70
2022/01/01 05:57:35;;;;;;;37.38;13.93;;;9.30;99.90;;;;;;4988912;28;20034;-71
2022/01/01 06:00:02;;;;;;;35.17;14.18;;;9.30;99.90;;;;;;4988495;28;20084;-70
2022/01/01 06:02:27;;;;;;;36.47;14.77;;;9.30;99.90;;;;;;4989080;28;20539;-71
2022/01/01 06:04:53;;;;;;;31.48;12.27;;;9.20;99.90;;;;;;4989099;28;20118;-70
2022/01/01 06:07:19;;;;;;;30.15;12.20;;;9.20;99.90;;;;;;4988052;28;20030;-71
2022/01/01 06:09:45;;;;;;;28.58;12.32;;;9.20;99.90;;;;;;4989067;28;20034;-70
2022/01/01 06:12:11;;;;;;;26.52;11.93;;;9.10;99.90;;;;;;4988554;28;20041;-71
2022/01/01 06:14:37;;;;;;;30.58;12.05;;;9.00;99.90;;;;;;4989220;28;20030;-71
2022/01/01 06:17:03;;;;;;;27.70;11.02;;;9.00;99.90;;;;;;4987510;28;20026;-70
2022/01/01 06:19:31;;;;;;;26.77;11.82;;;9.00;99.90;;;;;;4988717;28;20472;-71
2022/01/01 06:21:57;;;;;;;29.08;11.73;;;9.00;99.90;;;;;;4987296;28;20129;-70
2022/01/01 06:24:22;;;;;;;28.05;11.80;;;9.00;99.90;;;;;;4988637;28;20134;-71
2022/01/01 06:26:48;;;;;;;46.28;12.35;;;9.00;99.90;;;;;;4989077;28;20697;-70
2022/01/01 06:29:14;;;;;;;49.85;12.25;;;8.90;99.90;;;;;;4988663;28;20026;-71
2022/01/01 06:31:39;;;;;;;33.30;12.55;;;8.90;99.90;;;;;;4988951;28;20038;-70
2022/01/01 06:34:05;;;;;;;31.52;12.35;;;8.90;99.90;;;;;;4988187;28;20049;-70
2022/01/01 06:36:31;;;;;;;29.48;12.32;;;8.90;99.90;;;;;;4987318;28;20092;-72
2022/01/01 06:38:56;;;;;;;28.67;12.30;;;8.90;99.90;;;;;;4988801;28;20046;-70
2022/01/01 06:41:24;;;;;;;32.35;12.43;;;8.90;99.90;;;;;;4988258;28;20533;-70
2022/01/01 06:43:50;;;;;;;30.10;12.57;;;8.90;99.90;;;;;;4988561;28;20038;-69
2022/01/01 06:46:16;;;;;;;30.33;12.65;;;8.90;99.90;;;;;;4992154;28;20041;-71
2022/01/01 06:48:41;;;;;;;29.88;12.15;;;8.90;99.90;;;;;;4992129;28;20034;-70
2022/01/01 06:51:07;;;;;;;32.13;13.50;;;8.90;99.90;;;;;;5000682;28;20030;-70
2022/01/01 06:53:33;;;;;;;31.17;13.13;;;8.90;99.90;;;;;;4992317;28;20097;-71
2022/01/01 06:56:04;;;;;;;29.25;11.48;;;8.80;99.90;;;;;;4990580;28;20034;-71
2022/01/01 06:58:29;;;;;;;29.20;12.30;;;8.80;99.90;;;;;;4989401;28;20786;-71
2022/01/01 07:00:55;;;;;;;29.35;12.20;;;8.80;99.90;;;;;;4990744;28;20030;-70
2022/01/01 07:03:22;;;;;;;27.55;11.65;;;8.80;99.90;;;;;;4991622;28;20033;-70
2022/01/01 07:05:48;;;;;;;140.40;13.27;;;8.80;99.90;;;;;;4991739;28;20038;-70
2022/01/01 07:08:14;;;;;;;29.63;11.55;;;8.70;99.90;;;;;;4990721;28;20030;-70
2022/01/01 07:10:41;;;;;;;26.40;11.48;;;8.70;99.90;;;;;;4991274;28;20053;-71
2022/01/01 07:13:07;;;;;;;29.10;12.77;;;8.70;99.90;;;;;;4988936;28;20092;-70
2022/01/01 07:15:33;;;;;;;29.20;11.90;;;8.70;99.90;;;;;;4991723;28;20063;-70
2022/01/01 07:17:58;;;;;;;31.92;12.82;;;8.70;99.90;;;;;;4990981;28;20061;-70
2022/01/01 07:20:24;;;;;;;30.25;12.98;;;8.70;99.90;;;;;;4991470;28;20515;-70
2022/01/01 07:22:50;;;;;;;30.67;12.75;;;8.70;99.90;;;;;;4992271;28;20505;-71
2022/01/01 07:25:16;;;;;;;31.73;13.52;;;8.70;99.90;;;;;;4990550;28;20067;-71
2022/01/01 07:27:41;;;;;;;31.83;12.75;;;8.70;99.90;;;;;;4991764;28;20058;-70
2022/01/01 07:30:08;;;;;;;30.17;12.52;;;8.80;99.90;;;;;;4989468;28;20034;-70
2022/01/01 07:32:47;;;;;;;30.35;13.40;;;8.70;99.90;;;;;;4990395;28;20038;-71
2022/01/01 07:35:14;;;;;;;30.58;12.77;;;8.70;99.90;;;;;;4988731;28;20566;-71
2022/01/01 07:37:40;;;;;;;34.92;13.27;;;8.70;99.90;;;;;;4989189;28;20054;-70
2022/01/01 07:40:09;;;;;;;39.88;15.15;;;8.70;99.90;;;;;;4974889;28;20034;-71
2022/01/01 07:42:35;;;;;;;33.08;14.68;;;8.70;99.90;;;;;;4970254;28;20038;-70
2022/01/01 07:45:01;;;;;;;35.33;14.25;;;8.70;99.90;;;;;;4968214;28;20097;-71
2022/01/01 07:47:27;;;;;;;33.00;14.10;;;8.70;99.90;;;;;;4971276;28;20034;-71
2022/01/01 07:49:53;;;;;;;36.50;14.25;;;8.70;99.90;;;;;;4971417;28;20407;-71
2022/01/01 07:52:18;;;;;;;29.00;12.68;;;8.70;99.90;;;;;;4972230;28;20042;-71
2022/01/01 07:54:44;;;;;;;29.48;13.38;;;8.70;99.90;;;;;;4972206;28;20140;-70
2022/01/01 07:57:10;;;;;;;31.90;13.27;;;8.80;99.90;;;;;;4957645;28;20035;-70
2022/01/01 07:59:35;;;;;;;29.52;12.23;;;8.80;99.90;;;;;;4971028;28;20037;-70
2022/01/01 08:02:01;;;;;;;30.23;11.93;;;8.90;99.90;;;;;;4977889;28;20037;-70
2022/01/01 08:04:27;;;;;;;30.85;12.13;;;9.00;99.90;;;;;;4980358;28;20030;-70
2022/01/01 08:06:52;;;;;;;29.00;11.13;;;9.10;99.90;;;;;;4983869;28;20464;-70
2022/01/01 08:09:18;;;;;;;30.23;12.73;;;9.20;99.90;;;;;;4969941;28;20038;-70
2022/01/01 08:11:44;;;;;;;30.35;12.55;;;9.30;99.90;;;;;;4972507;28;20478;-71
2022/01/01 08:14:09;;;;;;;28.40;12.15;;;9.30;99.90;;;;;;4974448;28;20459;-70
2022/01/01 08:17:01;;;;;;;30.23;12.85;;;9.40;99.90;;;;;;4968292;28;20070;-70
2022/01/01 08:19:28;;;;;;;31.05;12.15;;;9.50;99.90;;;;;;4971104;28;20058;-70
2022/01/01 08:21:54;;;;;;;29.65;13.20;;;9.60;99.90;;;;;;4970735;28;20395;-70
2022/01/01 08:24:21;;;;;;;30.08;13.70;;;9.60;99.90;;;;;;4974440;28;20538;-71
2022/01/01 08:26:46;;;;;;;34.25;14.48;;;9.70;99.90;;;;;;4954824;28;20077;-71
2022/01/01 08:29:12;;;;;;;31.77;12.50;;;9.80;99.90;;;;;;4969777;28;20018;-71
2022/01/01 08:31:38;;;;;;;32.03;13.40;;;9.70;99.90;;;;;;4971985;28;20034;-71
2022/01/01 08:34:04;;;;;;;31.38;14.23;;;9.80;99.90;;;;;;4971407;28;20053;-71
2022/01/01 08:36:29;;;;;;;31.77;14.48;;;9.90;99.90;;;;;;4973882;28;20055;-72
2022/01/01 08:38:55;;;;;;;30.13;13.55;;;10.00;99.90;;;;;;4990920;28;20073;-71
2022/01/01 08:41:21;;;;;;;30.48;13.80;;;10.00;99.90;;;;;;4989741;28;20114;-71
2022/01/01 08:43:46;;;;;;;25.02;12.05;;;10.00;99.90;;;;;;4990527;28;20029;-70
2022/01/01 08:46:12;;;;;;;33.75;13.27;;;10.00;99.90;;;;;;4989442;28;20030;-70
2022/01/01 08:48:38;;;;;;;26.90;13.00;;;10.00;99.90;;;;;;4990099;28;20041;-70
2022/01/01 08:51:17;;;;;;;31.38;12.00;;;10.10;99.90;;;;;;4989001;28;20743;-70
2022/01/01 08:53:44;;;;;;;30.88;13.82;;;10.00;99.90;;;;;;4990277;28;20070;-70
2022/01/01 08:56:10;;;;;;;31.20;12.90;;;10.10;99.90;;;;;;4988794;28;20037;-70
2022/01/01 08:58:36;;;;;;;28.02;11.75;;;10.10;99.90;;;;;;4989972;28;20041;-70
2022/01/01 09:01:03;;;;;;;24.67;11.02;;;10.10;99.90;;;;;;4990281;28;20042;-70
2022/01/01 09:03:30;;;;;;;25.35;10.68;;;10.10;99.90;;;;;;4989351;28;20109;-70
2022/01/01 09:05:55;;;;;;;25.38;11.15;;;10.10;99.90;;;;;;4989685;28;20034;-70
2022/01/01 09:08:21;;;;;;;24.60;11.32;;;10.20;99.90;;;;;;4988743;28;20110;-70
2022/01/01 09:10:47;;;;;;;25.70;11.60;;;10.20;99.90;;;;;;4989677;28;20031;-70
2022/01/01 09:13:13;;;;;;;23.90;10.73;;;10.30;99.90;;;;;;4989411;28;20081;-70
2022/01/01 09:15:39;;;;;;;24.90;10.93;;;10.40;99.90;;;;;;4989964;28;20101;-70
2022/01/01 09:18:04;;;;;;;29.38;11.27;;;10.40;99.90;;;;;;4990572;28;20034;-70
2022/01/01 09:20:30;;;;;;;24.50;10.15;;;10.50;99.90;;;;;;4988719;28;20539;-70
2022/01/01 09:22:56;;;;;;;26.15;10.60;;;10.60;99.90;;;;;;4989621;28;20108;-70
2022/01/01 09:25:21;;;;;;;22.10;9.85;;;10.60;99.90;;;;;;4989354;28;20109;-70
2022/01/01 09:27:47;;;;;;;20.80;9.07;;;10.70;99.90;;;;;;4989484;28;20054;-69
2022/01/01 09:30:13;;;;;;;23.40;9.65;;;10.70;99.90;;;;;;4988740;28;20034;-70
2022/01/01 09:32:39;;;;;;;24.73;9.07;;;10.80;99.90;;;;;;4990093;28;20118;-70
2022/01/01 09:35:05;;;;;;;18.30;7.80;;;10.90;99.90;;;;;;4989254;28;20109;-70
2022/01/01 09:37:34;;;;;;;23.38;9.25;;;11.00;99.90;;;;;;4999678;28;20052;-70
2022/01/01 09:40:00;;;;;;;20.95;9.13;;;11.10;99.90;;;;;;4987817;28;20112;-69
2022/01/01 09:42:26;;;;;;;23.85;10.55;;;11.20;99.90;;;;;;4988577;28;20472;-70
2022/01/01 09:44:54;;;;;;;26.80;9.27;;;11.10;99.90;;;;;;4988760;28;20522;-69
2022/01/01 09:47:19;;;;;;;21.67;9.65;;;11.20;99.90;;;;;;4988968;28;20105;-69
2022/01/01 09:49:45;;;;;;;22.75;9.18;;;11.20;99.90;;;;;;4989005;28;20114;-69
2022/01/01 09:52:13;;;;;;;19.60;7.88;;;11.20;99.90;;;;;;4980549;28;20042;-69
2022/01/01 09:54:39;;;;;;;16.92;7.65;;;11.30;99.90;;;;;;4979667;28;20108;-70
2022/01/01 09:57:05;;;;;;;14.82;7.45;;;11.30;99.90;;;;;;4989151;28;20042;-69
2022/01/01 09:59:32;;;;;;;19.45;7.72;;;11.10;99.90;;;;;;4987325;28;20030;-69
2022/01/01 10:01:58;;;;;;;18.92;7.07;;;11.10;99.90;;;;;;5000280;28;20376;-69
2022/01/01 10:04:23;;;;;;;17.55;7.40;;;11.20;99.90;;;;;;4988103;28;20050;-70
2022/01/01 10:07:05;;;;;;;23.75;8.25;;;11.30;99.90;;;;;;4989194;28;20463;-69
2022/01/01 10:09:32;;;;;;;15.90;6.53;;;11.50;99.90;;;;;;4989820;28;20030;-69
2022/01/01 10:11:58;;;;;;;15.15;7.43;;;11.60;99.90;;;;;;4990500;28;20031;-69
2022/01/01 10:14:42;;;;;;;18.38;7.88;;;11.80;99.90;;;;;;4978826;28;20708;-69
2022/01/01 10:17:29;;;;;;;19.42;7.97;;;11.90;99.90;;;;;;4972197;28;20031;-70
2022/01/01 10:19:54;;;;;;;17.40;7.78;;;11.90;99.90;;;;;;4978029;28;20542;-70
2022/01/01 10:22:24;;;;;;;18.52;8.52;;;12.00;99.90;;;;;;4986872;28;20027;-70
2022/01/01 10:28:04;;;;;;;18.70;6.33;;;12.00;99.90;;;;;;4990321;28;20053;-70
2022/01/01 10:30:43;;;;;;;8.83;4.07;;;11.90;99.90;;;;;;4990502;28;20165;-69
2022/01/01 10:33:13;;;;;;;13.95;5.45;;;11.80;99.90;;;;;;4986113;28;20288;-70
2022/01/01 10:35:46;;;;;;;13.00;6.03;;;11.70;99.90;;;;;;4992358;28;20030;-70
2022/01/01 10:38:14;;;;;;;13.02;5.68;;;11.60;99.90;;;;;;4992299;28;20043;-70
2022/01/01 10:40:41;;;;;;;11.07;4.85;;;11.80;99.90;;;;;;4993100;28;20562;-69
2022/01/01 10:43:07;;;;;;;12.23;4.70;;;11.90;99.90;;;;;;4991535;28;20076;-70
2022/01/01 10:45:37;;;;;;;11.20;4.97;;;11.90;99.90;;;;;;4990643;28;20643;-70
2022/01/01 10:48:23;;;;;;;14.37;5.53;;;11.90;99.90;;;;;;4999100;28;20022;-70
2022/01/01 10:50:51;;;;;;;10.57;4.65;;;12.10;99.90;;;;;;4993047;28;20034;-69
2022/01/01 10:53:28;;;;;;;12.13;4.95;;;12.30;99.90;;;;;;4991433;28;20033;-70
2022/01/01 10:55:56;;;;;;;9.68;5.05;;;12.50;99.90;;;;;;4993085;28;20042;-70
2022/01/01 10:58:27;;;;;;;11.25;5.25;;;12.50;99.90;;;;;;4995692;28;20041;-70
2022/01/01 11:01:00;;;;;;;12.10;4.60;;;12.60;99.90;;;;;;4972224;28;20538;-69
2022/01/01 11:03:27;;;;;;;12.70;4.65;;;12.40;99.90;;;;;;4982928;28;20030;-69
2022/01/01 11:06:11;;;;;;;9.63;3.90;;;12.30;99.90;;;;;;4993597;28;20033;-70
2022/01/01 11:08:42;;;;;;;10.98;4.70;;;12.40;99.90;;;;;;4992188;28;20049;-71
2022/01/01 11:11:10;;;;;;;10.98;4.25;;;12.60;99.90;;;;;;4991884;28;20030;-70
2022/01/01 11:13:37;;;;;;;8.38;3.90;;;12.70;99.90;;;;;;4991338;28;20026;-71
2022/01/01 11:16:04;;;;;;;11.82;4.45;;;12.70;99.90;;;;;;4991884;28;20053;-71
2022/01/01 11:18:31;;;;;;;8.32;3.85;;;12.80;99.90;;;;;;4991951;28;20077;-71
2022/01/01 11:20:59;;;;;;;9.02;4.00;;;12.90;99.90;;;;;;4991908;28;20054;-70
2022/01/01 11:23:26;;;;;;;10.18;4.30;;;13.00;99.90;;;;;;4991994;28;20038;-71
2022/01/01 11:25:52;;;;;;;12.00;4.75;;;12.90;99.90;;;;;;4992092;28;20030;-71
2022/01/01 11:28:19;;;;;;;12.38;5.03;;;13.10;99.90;;;;;;4990398;28;20033;-71
2022/01/01 11:30:47;;;;;;;14.05;6.03;;;13.10;99.90;;;;;;4965187;28;20041;-68
2022/01/01 11:33:17;;;;;;;12.15;5.68;;;13.20;99.90;;;;;;4977462;28;20034;-67
2022/01/01 11:35:56;;;;;;;11.52;4.93;;;13.20;99.90;;;;;;4966773;28;20050;-70
2022/01/01 11:38:22;;;;;;;11.57;5.80;;;13.20;99.90;;;;;;4984267;28;20549;-68
2022/01/01 11:40:58;;;;;;;13.35;5.30;;;13.40;99.90;;;;;;4977132;28;20056;-70
2022/01/01 11:43:47;;;;;;;14.25;5.95;;;13.50;99.90;;;;;;4978154;28;20121;-70
2022/01/01 11:46:22;;;;;;;9.75;4.93;;;13.60;99.90;;;;;;4981517;28;20050;-69
2022/01/01 11:48:58;;;;;;;14.05;6.13;;;13.50;99.90;;;;;;4973277;28;20041;-70
2022/01/01 11:51:45;;;;;;;11.65;5.47;;;13.60;99.90;;;;;;4979996;28;20148;-69
2022/01/01 11:54:17;;;;;;;10.30;5.28;;;13.60;99.90;;;;;;4969695;28;20146;-68
2022/01/01 11:56:58;;;;;;;8.65;4.22;;;13.50;99.90;;;;;;4989962;28;20053;-69
2022/01/01 11:59:28;;;;;;;11.98;4.78;;;13.60;99.90;;;;;;4963827;28;20069;-70
2022/01/01 12:01:57;;;;;;;11.48;4.53;;;13.70;99.90;;;;;;4989188;28;20042;-71
2022/01/01 12:04:31;;;;;;;12.35;5.72;;;13.80;99.90;;;;;;4975733;28;20030;-69
2022/01/01 12:07:16;;;;;;;12.23;5.13;;;13.80;99.90;;;;;;4964166;28;20112;-69
2022/01/01 12:10:09;;;;;;;13.05;5.10;;;13.90;99.90;;;;;;4965358;28;20224;-69
2022/01/01 12:12:58;;;;;;;12.23;4.90;;;13.80;99.90;;;;;;4986134;28;20234;-69
2022/01/01 12:15:44;;;;;;;11.27;5.70;;;13.80;99.90;;;;;;4983178;28;20391;-69
2022/01/01 12:18:21;;;;;;;9.70;4.90;;;13.90;99.90;;;;;;4983723;28;20038;-69
2022/01/01 12:20:52;;;;;;;14.13;5.25;;;14.10;99.90;;;;;;4991107;28;20439;-69
2022/01/01 12:23:21;;;;;;;11.32;4.95;;;14.20;99.90;;;;;;4971786;28;20031;-69
2022/01/01 12:25:48;;;;;;;11.38;4.78;;;14.20;99.90;;;;;;4989627;28;20390;-69
2022/01/01 12:28:37;;;;;;;13.25;4.65;;;14.40;99.90;;;;;;4990483;28;20367;-69
2022/01/01 12:31:13;;;;;;;10.32;4.82;;;14.60;99.90;;;;;;4990693;28;20050;-70
2022/01/01 12:33:41;;;;;;;8.68;4.18;;;15.00;99.90;;;;;;4990134;28;20026;-69
2022/01/01 12:36:10;;;;;;;11.15;4.50;;;15.30;99.90;;;;;;4990430;28;20489;-69
2022/01/01 12:38:40;;;;;;;10.55;5.03;;;15.40;99.90;;;;;;4988933;28;20618;-69
2022/01/01 12:41:13;;;;;;;8.10;4.13;;;15.50;99.90;;;;;;4996275;28;20038;-71
2022/01/01 12:43:46;;;;;;;9.18;4.10;;;15.50;99.90;;;;;;4992201;28;20017;-71
2022/01/01 12:46:13;;;;;;;7.68;3.70;;;15.40;99.90;;;;;;4991319;28;20038;-70